Time;durP1;ratioP1;P1;durP2;ratioP2;P2;SDS_P1;SDS_P2;PMS_P1;PMS_P2;Temp;Humidity;BMP_temperature;BMP_pressure;BME280_temperature;BME280_humidity;BME280_pressure;Samples;Min_cycle;Max_cycle;Signal;HPM_P1;HPM_P2
2023/11/11 00:02:19;;;;;;;4.15;2.10;;;;;;;7.01;100.00;99695.25;4847630;29;20032;-75
2023/11/11 00:04:44;;;;;;;4.35;2.63;;;;;;;7.02;100.00;99701.38;4861255;29;20093;-73
2023/11/11 00:07:11;;;;;;;5.30;2.70;;;;;;;7.03;100.00;99692.31;4867605;29;20037;-75
2023/11/11 00:09:37;;;;;;;5.43;2.38;;;;;;;7.03;100.00;99698.44;4865347;29;20083;-74
2023/11/11 00:12:07;;;;;;;5.80;2.67;;;;;;;7.02;100.00;99699.50;4880501;29;20041;-74
2023/11/11 00:14:34;;;;;;;4.80;2.25;;;;;;;7.00;100.00;99699.00;4860076;29;20114;-76
2023/11/11 00:17:01;;;;;;;4.93;2.78;;;;;;;7.01;100.00;99695.25;4867806;29;20084;-76
2023/11/11 00:19:27;;;;;;;3.63;2.42;;;;;;;7.00;100.00;99696.34;4880676;29;20052;-74
2023/11/11 00:21:54;;;;;;;5.90;2.75;;;;;;;7.01;100.00;99694.47;4860071;29;20065;-74
2023/11/11 00:24:21;;;;;;;5.20;2.65;;;;;;;7.01;100.00;99692.59;4861708;29;20029;-77
2023/11/11 00:26:48;;;;;;;6.55;3.08;;;;;;;7.04;100.00;99696.56;4852322;29;20667;-76
2023/11/11 00:29:16;;;;;;;4.95;2.75;;;;;;;7.03;100.00;99692.31;4852603;29;20075;-75
2023/11/11 00:31:46;;;;;;;5.25;2.85;;;;;;;7.04;100.00;99685.91;4841758;29;20051;-75
2023/11/11 00:34:11;;;;;;;3.88;2.80;;;;;;;7.02;100.00;99690.72;4863992;29;20777;-76
2023/11/11 00:36:39;;;;;;;5.88;3.67;;;;;;;7.02;100.00;99680.88;4869509;29;20574;-76
2023/11/11 00:39:12;;;;;;;5.38;3.20;;;;;;;7.02;100.00;99685.41;4855745;29;20054;-76
2023/11/11 00:41:39;;;;;;;7.22;3.30;;;;;;;7.04;100.00;99680.59;4866232;29;20139;-78
2023/11/11 00:44:09;;;;;;;5.18;3.30;;;;;;;6.99;100.00;99685.97;4865974;29;20041;-75
2023/11/11 00:46:39;;;;;;;5.18;2.95;;;;;;;7.00;100.00;99692.88;4871746;29;20049;-75
2023/11/11 00:49:07;;;;;;;5.45;3.40;;;;;;;7.02;100.00;99685.41;4863708;29;20048;-75
2023/11/11 00:51:36;;;;;;;6.80;3.85;;;;;;;7.03;100.00;99687.00;4853205;29;20072;-78
2023/11/11 00:54:02;;;;;;;5.97;3.55;;;;;;;7.03;100.00;99684.31;4851368;29;20049;-75
2023/11/11 00:56:28;;;;;;;6.22;3.45;;;;;;;7.02;100.00;99688.06;4851433;29;20045;-76
2023/11/11 00:58:54;;;;;;;4.35;3.45;;;;;;;7.03;100.00;99693.09;4851164;29;20483;-77
2023/11/11 01:01:21;;;;;;;8.68;3.90;;;;;;;7.04;100.00;99688.59;4870991;29;20036;-77
2023/11/11 01:03:47;;;;;;;7.45;4.68;;;;;;;7.03;100.00;99687.00;4866224;29;20044;-77
2023/11/11 01:06:13;;;;;;;8.35;3.15;;;;;;;7.01;100.00;99689.13;4872094;29;20033;-78
2023/11/11 01:08:40;;;;;;;8.98;3.22;;;;;;;7.03;100.00;99692.31;4858646;29;20096;-76
2023/11/11 01:11:07;;;;;;;6.53;3.38;;;;;;;7.01;100.00;99689.13;4871464;29;20089;-77
2023/11/11 01:13:33;;;;;;;5.45;3.40;;;;;;;7.02;100.00;99696.06;4868338;29;20120;-77
2023/11/11 01:16:00;;;;;;;6.10;3.15;;;;;;;7.03;100.00;99694.97;4882813;29;20045;-76
2023/11/11 01:18:30;;;;;;;4.97;3.17;;;;;;;7.04;100.00;99694.69;4855466;29;20082;-77
2023/11/11 01:20:57;;;;;;;8.77;3.72;;;;;;;7.03;100.00;99687.78;4855487;29;20037;-76
2023/11/11 01:23:22;;;;;;;6.65;3.92;;;;;;;7.03;100.00;99689.66;4849083;29;20053;-77
2023/11/11 01:25:48;;;;;;;7.57;3.70;;;;;;;7.02;100.00;99694.19;4865356;29;20049;-77
2023/11/11 01:28:16;;;;;;;7.13;3.70;;;;;;;7.03;100.00;99697.63;4864903;29;20503;-77
2023/11/11 01:30:42;;;;;;;7.13;4.15;;;;;;;7.00;100.00;99692.88;4866508;29;20045;-77
2023/11/11 01:33:08;;;;;;;8.00;4.20;;;;;;;7.01;100.00;99695.25;4866175;29;20037;-77
2023/11/11 01:35:34;;;;;;;8.15;4.20;;;;;;;7.04;100.00;99704.56;4885412;29;20116;-77
2023/11/11 01:38:00;;;;;;;5.20;3.72;;;;;;;7.05;100.00;99690.19;4871052;29;20049;-77
2023/11/11 01:40:26;;;;;;;6.05;3.60;;;;;;;7.06;100.00;99705.09;4849456;29;20045;-76
2023/11/11 01:42:52;;;;;;;5.60;3.78;;;;;;;7.05;100.00;99692.88;4865793;29;20040;-77
2023/11/11 01:45:18;;;;;;;6.75;3.35;;;;;;;7.06;100.00;99689.13;4864163;29;20041;-78
2023/11/11 01:47:44;;;;;;;7.35;4.00;;;;;;;7.06;100.00;99697.13;4858192;29;20099;-77
2023/11/11 01:50:11;;;;;;;6.38;3.40;;;;;;;7.06;100.00;99697.13;4865326;29;20033;-78
2023/11/11 01:52:39;;;;;;;7.53;3.53;;;;;;;7.06;100.00;99691.78;4867663;29;20045;-78
2023/11/11 01:55:05;;;;;;;5.07;3.42;;;;;;;7.06;100.00;99692.59;4881955;29;20406;-77
2023/11/11 01:57:32;;;;;;;5.57;3.35;;;;;;;7.05;100.00;99687.53;4866292;29;20041;-77
2023/11/11 02:00:05;;;;;;;5.38;3.00;;;;;;;7.03;100.00;99692.31;4875816;29;20056;-76
2023/11/11 02:02:33;;;;;;;4.97;2.75;;;;;;;7.01;100.00;99691.81;4866547;29;20499;-77
2023/11/11 02:04:58;;;;;;;;;;;;;;;7.04;100.00;99691.25;4869233;29;20037;-76
2023/11/11 02:07:24;;;;;;;4.55;2.90;;;;;;;7.03;100.00;99694.97;4849706;29;19996;-76
2023/11/11 02:09:50;;;;;;;6.05;3.80;;;;;;;7.05;100.00;99695.53;4881843;29;20395;-74
2023/11/11 02:12:17;;;;;;;8.55;3.13;;;;;;;7.04;100.00;99693.91;4867010;29;20105;-78
2023/11/11 02:14:44;;;;;;;7.25;3.20;;;;;;;7.04;100.00;99694.69;4867668;29;20052;-76
2023/11/11 02:17:10;;;;;;;6.00;3.60;;;;;;;7.02;100.00;99688.84;4867931;29;20037;-75
2023/11/11 02:19:36;;;;;;;6.03;3.38;;;;;;;7.04;100.00;99694.69;4868380;29;20422;-75
2023/11/11 02:22:04;;;;;;;8.02;3.17;;;;;;;7.07;100.00;99690.72;4850514;29;20041;-75
2023/11/11 02:24:32;;;;;;;7.07;3.63;;;;;;;7.05;100.00;99698.97;4869949;29;20041;-75
2023/11/11 02:26:58;;;;;;;7.32;4.00;;;;;;;7.06;100.00;99697.13;4860647;29;20093;-76
2023/11/11 02:29:23;;;;;;;5.45;3.15;;;;;;;7.06;100.00;99694.44;4868289;29;20205;-75
2023/11/11 02:31:50;;;;;;;5.40;3.47;;;;;;;7.07;100.00;99694.16;4868733;29;20045;-76
2023/11/11 02:34:16;;;;;;;6.57;2.97;;;;;;;7.05;100.00;99690.19;4868587;29;20038;-77
2023/11/11 02:36:41;;;;;;;5.03;3.30;;;;;;;7.05;100.00;99685.66;4869137;29;20067;-77
2023/11/11 02:39:07;;;;;;;7.13;3.65;;;;;;;7.07;100.00;99698.69;4832197;29;20140;-76
2023/11/11 02:41:32;;;;;;;6.60;3.70;;;;;;;7.07;100.00;99688.84;4848497;29;20773;-76
2023/11/11 02:43:58;;;;;;;5.53;3.20;;;;;;;7.07;100.00;99688.84;4862890;29;20064;-76
2023/11/11 02:46:24;;;;;;;9.15;3.25;;;;;;;7.10;100.00;99692.81;4865692;29;20514;-76
2023/11/11 02:48:50;;;;;;;7.60;2.80;;;;;;;7.10;100.00;99690.97;4866773;29;20040;-76
2023/11/11 02:51:16;;;;;;;6.63;3.33;;;;;;;7.11;100.00;99691.75;4868659;29;20037;-75
2023/11/11 02:53:41;;;;;;;5.53;3.05;;;;;;;7.11;100.00;99692.56;4865323;29;20065;-75
2023/11/11 02:56:09;;;;;;;7.25;3.40;;;;;;;7.09;100.00;99686.69;4866869;29;20044;-74
2023/11/11 02:58:35;;;;;;;7.13;3.05;;;;;;;7.10;100.00;99698.16;4853350;29;20055;-74
2023/11/11 03:01:02;;;;;;;6.47;3.35;;;;;;;7.10;100.00;99692.81;4871702;29;20036;-75
2023/11/11 03:03:27;;;;;;;4.82;2.90;;;;;;;7.10;100.00;99690.97;4869964;29;20040;-75
2023/11/11 03:05:54;;;;;;;6.40;3.30;;;;;;;7.09;100.00;99700.00;4866410;29;20439;-75
2023/11/11 03:08:21;;;;;;;6.72;2.90;;;;;;;7.10;100.00;99698.94;4863559;29;20093;-75
2023/11/11 03:10:47;;;;;;;5.20;2.95;;;;;;;7.11;100.00;99691.75;4881917;29;20048;-75
2023/11/11 03:13:13;;;;;;;5.07;2.60;;;;;;;7.14;100.00;99698.41;4864551;29;20037;-75
2023/11/11 03:15:39;;;;;;;;;;;;;;;7.14;100.00;99701.06;4860896;29;20065;-75
2023/11/11 03:18:06;;;;;;;5.22;3.30;;;;;;;7.14;100.00;99701.88;4866914;29;20382;-75
2023/11/11 03:20:32;;;;;;;6.22;3.45;;;;;;;7.14;100.00;99699.22;4884899;29;20045;-74
2023/11/11 03:22:58;;;;;;;7.05;3.63;;;;;;;7.14;100.00;99699.22;4868061;29;20049;-75
2023/11/11 03:25:25;;;;;;;5.50;3.15;;;;;;;7.15;100.00;99700.81;4866392;29;20048;-76
2023/11/11 03:27:50;;;;;;;5.65;3.17;;;;;;;7.14;100.00;99693.88;4857691;29;20728;-75
2023/11/11 03:30:16;;;;;;;5.38;3.13;;;;;;;7.14;100.00;99699.22;4867331;29;20407;-76
2023/11/11 03:32:41;;;;;;;5.93;2.80;;;;;;;7.14;100.00;99696.53;4852804;29;20137;-75
2023/11/11 03:35:07;;;;;;;5.55;2.83;;;;;;;7.15;100.00;99695.47;4868945;29;20155;-75
2023/11/11 03:37:34;;;;;;;5.10;3.00;;;;;;;7.14;100.00;99699.22;4870711;29;20072;-75
2023/11/11 03:40:00;;;;;;;5.68;3.17;;;;;;;7.15;100.00;99700.81;4850353;29;20319;-75
2023/11/11 03:42:26;;;;;;;6.43;3.00;;;;;;;7.17;100.00;99703.19;4851320;29;20542;-74
2023/11/11 03:44:51;;;;;;;6.70;2.55;;;;;;;7.17;100.00;99692.53;4865045;29;20071;-75
2023/11/11 03:47:17;;;;;;;6.93;3.20;;;;;;;7.15;100.00;99689.34;4869191;29;20069;-74
2023/11/11 03:49:42;;;;;;;5.68;2.95;;;;;;;7.14;100.00;99688.56;4867315;29;20037;-74
2023/11/11 03:52:09;;;;;;;5.18;2.85;;;;;;;7.14;100.00;99693.09;4851121;29;20049;-74
2023/11/11 03:54:35;;;;;;;8.65;2.83;;;;;;;7.11;100.00;99694.41;4864768;29;20104;-77
2023/11/11 03:57:00;;;;;;;5.15;3.03;;;;;;;7.12;100.00;99685.38;4854782;29;20038;-73
2023/11/11 03:59:26;;;;;;;4.10;2.38;;;;;;;7.13;100.00;99691.50;4875772;29;20036;-75
2023/11/11 04:01:53;;;;;;;4.78;2.60;;;;;;;7.10;100.00;99695.47;4881990;29;20063;-76
2023/11/11 04:04:18;;;;;;;5.47;2.72;;;;;;;7.08;100.00;99690.44;4842560;29;20562;-73
2023/11/11 04:06:44;;;;;;;4.43;2.60;;;;;;;7.06;100.00;99694.44;4880667;29;20043;-74
2023/11/11 04:09:10;;;;;;;5.35;2.67;;;;;;;7.04;100.00;99689.38;4863098;29;20250;-74
2023/11/11 04:11:38;;;;;;;6.85;2.70;;;;;;;7.04;100.00;99696.56;4880296;29;20042;-74
2023/11/11 04:14:04;;;;;;;5.13;3.13;;;;;;;7.02;100.00;99702.16;4870659;29;20034;-75
2023/11/11 04:16:30;;;;;;;9.45;3.35;;;;;;;7.00;100.00;99695.53;4863870;29;20042;-76
2023/11/11 04:18:56;;;;;;;6.30;3.75;;;;;;;6.95;100.00;99692.88;4850126;29;20073;-75
2023/11/11 04:21:23;;;;;;;4.63;2.60;;;;;;;6.92;100.00;99702.22;4866044;29;20148;-77
2023/11/11 04:23:49;;;;;;;5.72;3.15;;;;;;;6.89;100.00;99702.75;4853414;29;20055;-76
2023/11/11 04:26:15;;;;;;;5.50;2.83;;;;;;;6.87;100.00;99693.44;4850997;29;20045;-75
2023/11/11 04:28:43;;;;;;;6.25;3.10;;;;;;;6.83;100.00;99707.28;4866916;29;20041;-75
2023/11/11 04:31:17;;;;;;;8.68;3.33;;;;;;;6.81;100.00;99709.41;4849713;29;20088;-76
2023/11/11 04:33:44;;;;;;;5.90;3.30;;;;;;;6.80;100.00;99707.81;4881421;29;20041;-74
2023/11/11 04:36:09;;;;;;;6.18;3.65;;;;;;;6.81;100.00;99709.41;4868794;29;20196;-76
2023/11/11 04:38:37;;;;;;;5.35;2.88;;;;;;;6.81;100.00;99713.94;4878636;29;20523;-76
2023/11/11 04:41:05;;;;;;;6.75;3.60;;;;;;;6.80;100.00;99705.16;4865783;29;20616;-76
2023/11/11 04:43:34;;;;;;;7.18;3.78;;;;;;;6.81;100.00;99716.59;4880500;29;20041;-76
2023/11/11 04:46:02;;;;;;;7.15;3.50;;;;;;;6.81;100.00;99716.59;4863608;29;20475;-74
2023/11/11 04:48:28;;;;;;;5.38;3.22;;;;;;;6.80;100.00;99726.44;4869516;29;20131;-74
2023/11/11 04:50:55;;;;;;;8.07;3.47;;;;;;;6.81;100.00;99722.72;4869007;29;20464;-75
2023/11/11 04:53:21;;;;;;;7.00;3.03;;;;;;;6.82;100.00;99729.63;4860512;29;20051;-74
2023/11/11 04:55:47;;;;;;;6.28;3.40;;;;;;;6.81;100.00;99721.91;4867702;29;20045;-74
2023/11/11 04:58:16;;;;;;;8.77;2.80;;;;;;;6.81;100.00;99728.03;4857534;29;20125;-75
2023/11/11 05:00:41;;;;;;;4.38;2.95;;;;;;;6.78;100.00;99722.47;4868731;29;20041;-75
2023/11/11 05:03:07;;;;;;;7.50;3.20;;;;;;;6.78;100.00;99738.44;4850482;29;20045;-75
2023/11/11 05:05:33;;;;;;;9.77;2.95;;;;;;;6.76;100.00;99738.69;4870256;29;20033;-75
2023/11/11 05:07:59;;;;;;;8.95;3.95;;;;;;;6.76;100.00;99744.00;4864361;29;20047;-74
2023/11/11 05:10:26;;;;;;;5.28;2.58;;;;;;;6.72;100.00;99726.22;4867383;29;20041;-77
2023/11/11 05:12:53;;;;;;;5.53;3.30;;;;;;;6.72;100.00;99737.66;4881897;29;20045;-75
2023/11/11 05:15:23;;;;;;;5.07;2.80;;;;;;;6.68;100.00;99733.91;4860128;29;20037;-75
2023/11/11 05:17:49;;;;;;;4.35;2.70;;;;;;;6.64;100.00;99727.56;4848232;29;20041;-74
2023/11/11 05:20:17;;;;;;;4.30;2.90;;;;;;;6.64;100.00;99732.88;4882754;29;20549;-75
2023/11/11 05:22:43;;;;;;;5.70;2.72;;;;;;;6.62;100.00;99742.97;4872337;29;20116;-75
2023/11/11 05:25:11;;;;;;;7.60;3.03;;;;;;;6.59;100.00;99735.53;4869578;29;20041;-75
2023/11/11 05:27:36;;;;;;;6.97;2.40;;;;;;;6.58;100.00;99749.91;4873782;29;20041;-74
2023/11/11 05:30:04;;;;;;;5.55;3.08;;;;;;;6.59;100.00;99740.06;4871074;29;20036;-74
2023/11/11 05:32:31;;;;;;;4.70;2.65;;;;;;;6.60;100.00;99742.44;4876986;29;20044;-75
2023/11/11 05:35:00;;;;;;;4.72;2.83;;;;;;;6.59;100.00;99740.06;4854575;29;20040;-74
2023/11/11 05:37:26;;;;;;;6.50;2.60;;;;;;;6.58;100.00;99749.91;4869012;29;20141;-74
2023/11/11 05:39:52;;;;;;;5.05;3.00;;;;;;;6.57;100.00;99746.44;4887395;29;20452;-75
2023/11/11 05:42:17;;;;;;;8.60;2.85;;;;;;;6.56;100.00;99760.00;4860886;29;20056;-75
2023/11/11 05:44:43;;;;;;;6.90;2.97;;;;;;;6.54;100.00;99762.91;4860207;29;20487;-75
2023/11/11 05:47:09;;;;;;;6.20;2.78;;;;;;;6.53;100.00;99766.66;4883658;29;20036;-74
2023/11/11 05:49:35;;;;;;;4.00;2.58;;;;;;;6.52;100.00;99766.94;4852001;29;20511;-74
2023/11/11 05:52:01;;;;;;;5.28;2.88;;;;;;;6.48;100.00;99758.66;4855499;29;20033;-75
2023/11/11 05:54:27;;;;;;;2.95;2.20;;;;;;;6.45;100.00;99767.19;4856593;29;20048;-75
2023/11/11 05:56:53;;;;;;;;;;;;;;;6.41;100.00;99770.63;4870208;29;20037;-75
2023/11/11 05:59:18;;;;;;;4.15;1.90;;;;;;;6.36;100.00;99765.31;4870210;29;19966;-75
2023/11/11 06:01:47;;;;;;;3.35;2.20;;;;;;;6.31;100.00;99776.75;4856079;29;20042;-75
2023/11/11 06:04:14;;;;;;;4.45;2.20;;;;;;;6.27;100.00;99762.38;4860294;29;20062;-75
2023/11/11 06:06:43;;;;;;;6.22;2.28;;;;;;;6.25;100.00;99780.47;4859756;29;20096;-75
2023/11/11 06:09:24;;;;;;;4.93;2.95;;;;;;;6.18;100.00;99778.06;4868749;29;20049;-75
2023/11/11 06:11:49;;;;;;;4.70;2.20;;;;;;;6.13;100.00;99775.41;4869840;29;20041;-74
2023/11/11 06:14:16;;;;;;;5.28;2.80;;;;;;;6.13;100.00;99779.91;4873623;29;20384;-74
2023/11/11 06:16:42;;;;;;;5.80;2.58;;;;;;;6.10;100.00;99786.56;4875172;29;20041;-75
2023/11/11 06:19:08;;;;;;;5.20;2.90;;;;;;;6.09;100.00;99787.59;4853036;29;20406;-75
2023/11/11 06:21:34;;;;;;;4.40;2.13;;;;;;;6.08;100.00;99785.22;4859336;29;20044;-74
2023/11/11 06:24:00;;;;;;;4.53;1.95;;;;;;;6.09;100.00;99794.78;4871790;29;20056;-75
2023/11/11 06:26:25;;;;;;;6.40;2.42;;;;;;;6.08;100.00;99793.19;4870981;29;20716;-74
2023/11/11 06:28:55;;;;;;;6.85;2.40;;;;;;;6.10;100.00;99799.84;4889066;29;20113;-74
2023/11/11 06:31:23;;;;;;;4.80;2.53;;;;;;;6.12;100.00;99799.59;4872065;29;20496;-74
2023/11/11 06:33:50;;;;;;;5.43;2.30;;;;;;;6.12;100.00;99808.34;4873015;29;20060;-74
2023/11/11 06:36:16;;;;;;;7.15;3.03;;;;;;;6.15;100.00;99799.84;4870690;29;20043;-75
2023/11/11 06:38:43;;;;;;;4.47;2.47;;;;;;;6.17;100.00;99805.72;4871138;29;20053;-75
2023/11/11 06:41:09;;;;;;;6.55;2.67;;;;;;;6.18;100.00;99812.63;4868088;29;20053;-74
2023/11/11 06:43:36;;;;;;;6.47;2.63;;;;;;;6.22;100.00;99813.69;4864298;29;20041;-75
2023/11/11 06:46:03;;;;;;;5.75;2.95;;;;;;;6.23;100.00;99817.97;4872381;29;20525;-74
2023/11/11 06:48:29;;;;;;;6.25;2.80;;;;;;;6.25;100.00;99815.03;4866037;29;20045;-75
2023/11/11 06:50:55;;;;;;;7.05;2.67;;;;;;;6.24;100.00;99808.91;4864885;29;20029;-75
2023/11/11 06:53:20;;;;;;;4.53;2.08;;;;;;;6.27;100.00;99823.53;4878197;29;20653;-74
2023/11/11 06:55:48;;;;;;;7.93;2.80;;;;;;;6.26;100.00;99828.06;4876221;29;20040;-74
2023/11/11 06:58:14;;;;;;;3.67;3.00;;;;;;;6.26;100.00;99820.09;4852147;29;20041;-75
2023/11/11 07:00:40;;;;;;;4.72;2.20;;;;;;;6.29;100.00;99822.19;4865877;29;20064;-74
2023/11/11 07:03:06;;;;;;;5.68;3.95;;;;;;;6.32;100.00;99830.75;4881529;23;20100;-76
2023/11/11 07:05:32;;;;;;;5.40;2.55;;;;;;;6.33;100.00;99821.69;4882243;29;20048;-74
2023/11/11 07:07:58;;;;;;;6.43;2.25;;;;;;;6.36;100.00;99829.94;4871044;29;20395;-73
2023/11/11 07:10:24;;;;;;;5.25;2.22;;;;;;;6.37;100.00;99828.88;4905140;29;20507;-75
2023/11/11 07:12:51;;;;;;;5.45;2.72;;;;;;;6.39;100.00;99836.59;4882498;29;20060;-75
2023/11/11 07:15:16;;;;;;;4.93;2.90;;;;;;;6.40;100.00;99832.88;4920753;29;20041;-74
2023/11/11 07:17:43;;;;;;;6.97;3.20;;;;;;;6.43;100.00;99853.59;4888105;29;20047;-75
2023/11/11 07:20:12;;;;;;;5.40;2.55;;;;;;;6.45;100.00;99852.31;4872469;29;20141;-75
2023/11/11 07:22:40;;;;;;;5.82;2.20;;;;;;;6.47;100.00;99855.50;4899386;29;20075;-74
2023/11/11 07:25:06;;;;;;;5.15;2.72;;;;;;;6.49;100.00;99852.56;4902111;29;20036;-74
2023/11/11 07:27:33;;;;;;;5.07;2.35;;;;;;;6.50;100.00;99851.50;4904590;29;20032;-76
2023/11/11 07:29:58;;;;;;;6.35;2.47;;;;;;;6.50;100.00;99847.00;4904876;29;20036;-74
2023/11/11 07:32:24;;;;;;;4.55;2.58;;;;;;;6.53;100.00;99858.97;4895144;29;20107;-75
2023/11/11 07:34:50;;;;;;;7.10;2.92;;;;;;;6.54;100.00;99865.88;4903665;29;20036;-74
2023/11/11 07:37:17;;;;;;;8.88;3.63;;;;;;;6.57;100.00;99862.69;4913802;29;20044;-75
2023/11/11 07:39:43;;;;;;;5.50;2.90;;;;;;;6.60;100.00;99867.47;4916374;29;20056;-74
2023/11/11 07:42:09;;;;;;;5.50;3.03;;;;;;;6.61;100.00;99871.72;4906311;29;20040;-75
2023/11/11 07:44:36;;;;;;;8.82;3.03;;;;;;;6.64;100.00;99871.22;4898457;29;20387;-75
2023/11/11 07:47:06;;;;;;;5.63;3.20;;;;;;;6.66;100.00;99869.09;4902159;29;20124;-76
2023/11/11 07:49:32;;;;;;;6.10;3.10;;;;;;;6.68;100.00;99877.59;4902295;29;20036;-74
2023/11/11 07:51:57;;;;;;;7.38;3.17;;;;;;;6.69;100.00;99879.19;4882880;29;20047;-74
2023/11/11 07:54:23;;;;;;;5.82;3.35;;;;;;;6.70;100.00;99875.47;4893400;29;20097;-73
2023/11/11 07:56:50;;;;;;;6.32;3.50;;;;;;;6.74;100.00;99883.72;4896795;29;20047;-74
2023/11/11 07:59:18;;;;;;;9.38;4.88;;;;;;;6.75;100.00;99872.81;4889018;29;20044;-74
2023/11/11 08:01:45;;;;;;;6.00;3.70;;;;;;;6.77;100.00;99870.69;4905865;29;20040;-74
2023/11/11 08:04:11;;;;;;;9.38;4.47;;;;;;;6.78;100.00;99885.59;4899641;29;20039;-75
2023/11/11 08:06:38;;;;;;;7.55;4.03;;;;;;;6.80;100.00;99885.31;4882552;29;20057;-73
2023/11/11 08:09:04;;;;;;;6.80;4.05;;;;;;;6.80;100.00;99885.31;4887401;29;20466;-74
2023/11/11 08:11:30;;;;;;;6.32;3.67;;;;;;;6.82;100.00;99894.63;4916047;29;20045;-73
2023/11/11 08:13:56;;;;;;;7.95;4.38;;;;;;;6.85;100.00;99898.66;4906338;29;20139;-73
2023/11/11 08:16:21;;;;;;;7.88;4.68;;;;;;;6.88;100.00;99892.78;4908652;29;21026;-73
2023/11/11 08:18:48;;;;;;;6.43;4.13;;;;;;;6.89;100.00;99898.91;4900925;29;20043;-75
2023/11/11 08:21:14;;;;;;;8.43;4.35;;;;;;;6.91;100.00;99900.25;4900818;29;20083;-74
2023/11/11 08:23:40;;;;;;;6.93;4.00;;;;;;;6.92;100.00;99901.06;4869492;29;20044;-74
2023/11/11 08:26:06;;;;;;;9.30;4.00;;;;;;;6.95;100.00;99893.31;4900907;29;20119;-75
2023/11/11 08:28:32;;;;;;;7.55;3.70;;;;;;;6.99;100.00;99904.25;4900613;29;20032;-74
2023/11/11 08:30:58;;;;;;;7.55;4.60;;;;;;;7.01;100.00;99902.09;4903017;29;20091;-75
2023/11/11 08:33:25;;;;;;;8.75;4.78;;;;;;;7.02;100.00;99909.03;4889133;29;20871;-76
2023/11/11 08:35:50;;;;;;;6.90;4.30;;;;;;;7.06;100.00;99910.09;4883692;29;20032;-73
2023/11/11 08:38:16;;;;;;;;;;;;;;;7.07;100.00;99906.38;4901994;29;20040;-75
2023/11/11 08:40:42;;;;;;;6.10;3.78;;;;;;;7.08;100.00;99911.41;4880210;29;19991;-73
2023/11/11 08:43:09;;;;;;;6.32;4.07;;;;;;;7.08;100.00;99910.63;4904199;29;20047;-73
2023/11/11 08:45:35;;;;;;;8.50;4.50;;;;;;;7.10;100.00;99914.59;4889891;29;20040;-74
2023/11/11 08:48:00;;;;;;;7.03;4.20;;;;;;;7.10;100.00;99916.47;4921077;29;20068;-73
2023/11/11 08:50:26;;;;;;;9.45;4.88;;;;;;;7.08;100.00;99916.75;4899418;29;20040;-76
2023/11/11 08:52:52;;;;;;;9.05;4.35;;;;;;;7.12;100.00;99919.69;4898691;29;20044;-73
2023/11/11 08:55:19;;;;;;;6.82;4.40;;;;;;;7.14;100.00;99922.88;4889551;29;20044;-73
2023/11/11 08:57:45;;;;;;;7.53;4.55;;;;;;;7.16;100.00;99920.72;4890395;29;20037;-73
2023/11/11 09:00:12;;;;;;;7.68;4.93;;;;;;;7.18;100.00;99921.28;4885478;29;20051;-75
2023/11/11 09:02:41;;;;;;;7.07;4.40;;;;;;;7.18;100.00;99929.28;4903683;29;20092;-73
2023/11/11 09:05:07;;;;;;;11.15;5.28;;;;;;;7.19;100.00;99925.53;4897736;29;20033;-73
2023/11/11 09:07:34;;;;;;;6.93;4.90;;;;;;;7.22;100.00;99914.34;4888700;29;20044;-74
2023/11/11 09:10:01;;;;;;;9.52;5.15;;;;;;;7.24;100.00;99922.84;4923092;29;20834;-73
2023/11/11 09:12:27;;;;;;;8.27;4.88;;;;;;;7.27;100.00;99917.00;4896504;29;20824;-74
2023/11/11 09:14:52;;;;;;;9.02;5.35;;;;;;;7.30;100.00;99918.34;4887922;29;20039;-74
2023/11/11 09:17:20;;;;;;;11.68;5.35;;;;;;;7.32;100.00;99932.19;4890193;29;20043;-73
2023/11/11 09:19:46;;;;;;;8.77;5.25;;;;;;;7.31;100.00;99920.72;4889707;29;20040;-74
2023/11/11 09:22:12;;;;;;;9.23;4.88;;;;;;;7.33;100.00;99923.94;4899325;29;20040;-75
2023/11/11 09:24:39;;;;;;;11.38;5.95;;;;;;;7.36;100.00;99926.06;4902126;29;20031;-73
2023/11/11 09:27:06;;;;;;;12.18;6.15;;;;;;;7.38;100.00;99929.25;4915000;29;20092;-73
2023/11/11 09:29:33;;;;;;;9.55;5.15;;;;;;;7.39;100.00;99930.84;4892338;29;20442;-73
2023/11/11 09:32:00;;;;;;;10.07;5.57;;;;;;;7.38;100.00;99934.59;4923331;29;20032;-75
2023/11/11 09:34:27;;;;;;;10.40;6.88;;;;;;;7.42;100.00;99934.03;4887441;29;20395;-74
2023/11/11 09:36:53;;;;;;;10.98;5.88;;;;;;;7.46;100.00;99935.91;4901345;29;20487;-73
2023/11/11 09:39:23;;;;;;;11.43;6.10;;;;;;;7.48;100.00;99932.97;4908390;29;20051;-76
2023/11/11 09:41:49;;;;;;;11.82;6.40;;;;;;;7.48;100.00;99933.78;4887085;29;20044;-74
2023/11/11 09:44:16;;;;;;;10.95;6.22;;;;;;;7.48;100.00;99933.78;4908555;29;20087;-74
2023/11/11 09:46:56;;;;;;;11.90;5.90;;;;;;;7.53;100.00;99933.78;4886669;29;20090;-73
2023/11/11 09:49:22;;;;;;;13.98;7.32;;;;;;;7.56;100.00;99935.09;4904027;29;20040;-73
2023/11/11 09:51:49;;;;;;;12.57;6.57;;;;;;;7.59;100.00;99939.91;4907546;29;20084;-73
2023/11/11 09:54:15;;;;;;;13.23;6.85;;;;;;;7.61;100.00;99940.41;4899023;29;20491;-74
2023/11/11 09:56:43;;;;;;;16.70;8.55;;;;;;;7.62;100.00;99940.16;4902926;29;20487;-73
2023/11/11 09:59:10;;;;;;;12.48;7.72;;;;;;;7.64;100.00;99939.88;4900137;29;20040;-74
2023/11/11 10:01:48;;;;;;;13.82;7.47;;;;;;;7.68;100.00;99942.81;4906400;29;20050;-74
2023/11/11 10:04:14;;;;;;;14.25;8.80;;;;;;;7.66;100.00;99943.09;4907206;29;20028;-76
2023/11/11 10:06:41;;;;;;;13.60;8.55;;;;;;;7.69;100.00;99941.72;4903145;29;20119;-74
2023/11/11 10:09:11;;;;;;;16.77;10.23;;;;;;;7.67;100.00;99944.69;4897685;29;20451;-73
2023/11/11 10:11:38;;;;;;;15.40;8.73;;;;;;;7.69;100.00;99947.84;4904313;29;20029;-74
2023/11/11 10:14:07;;;;;;;17.73;9.15;;;;;;;7.70;100.00;99940.66;4907201;29;20036;-74
2023/11/11 10:16:37;;;;;;;17.90;10.25;;;;;;;7.69;100.00;99949.72;4872224;29;20418;-73
2023/11/11 10:19:02;;;;;;;15.68;9.35;;;;;;;7.70;100.00;99948.66;4890374;29;20032;-75
2023/11/11 10:21:28;;;;;;;17.80;10.02;;;;;;;7.70;100.00;99957.44;4887721;29;20036;-74
2023/11/11 10:23:58;;;;;;;16.60;9.45;;;;;;;7.69;100.00;99955.06;4904629;29;20038;-73
2023/11/11 10:26:24;;;;;;;15.73;10.35;;;;;;;7.68;100.00;99948.94;4897551;29;20833;-74
2023/11/11 10:28:51;;;;;;;16.23;10.02;;;;;;;7.69;100.00;99952.41;4905524;29;20055;-74
2023/11/11 10:31:23;;;;;;;15.30;8.35;;;;;;;7.69;100.00;99950.53;4899041;29;20594;-74
2023/11/11 10:33:50;;;;;;;13.30;8.93;;;;;;;7.71;100.00;99952.91;4887756;29;20033;-74
2023/11/11 10:36:17;;;;;;;13.02;8.32;;;;;;;7.73;100.00;99958.78;4920796;29;20036;-73
2023/11/11 10:38:43;;;;;;;17.92;9.50;;;;;;;7.73;100.00;99962.25;4904915;29;20513;-74
2023/11/11 10:41:09;;;;;;;17.23;9.02;;;;;;;7.77;100.00;99965.97;4905206;29;20040;-74
2023/11/11 10:43:35;;;;;;;;;;;;;;;7.78;100.00;99962.22;4904758;29;20525;-73
2023/11/11 10:46:02;;;;;;;12.63;8.07;;;;;;;7.77;100.00;99965.97;4904201;29;19919;-74
2023/11/11 10:48:31;;;;;;;13.65;7.38;;;;;;;7.77;100.00;99959.84;4901852;29;20088;-75
2023/11/11 10:50:58;;;;;;;14.65;7.18;;;;;;;7.77;100.00;99962.50;4887355;29;20047;-74
2023/11/11 10:53:27;;;;;;;11.60;6.75;;;;;;;7.75;100.00;99962.78;4896309;29;20040;-74
2023/11/11 10:55:54;;;;;;;9.45;6.32;;;;;;;7.73;100.00;99953.47;4901243;29;20043;-74
2023/11/11 10:58:20;;;;;;;11.38;6.22;;;;;;;7.73;100.00;99962.25;4884184;29;20051;-73
2023/11/11 11:00:48;;;;;;;10.63;6.25;;;;;;;7.74;100.00;99969.19;4882310;29;20042;-74
2023/11/11 11:03:17;;;;;;;16.52;6.70;;;;;;;7.72;100.00;99971.28;4885068;29;20033;-75
2023/11/11 11:06:12;;;;;;;10.70;5.68;;;;;;;7.68;100.00;99970.25;4901624;29;20035;-74
2023/11/11 11:08:41;;;;;;;9.50;5.95;;;;;;;7.65;100.00;99976.94;4918110;29;20048;-74
2023/11/11 11:11:32;;;;;;;11.00;6.03;;;;;;;7.66;100.00;99972.41;4887788;29;20044;-75
2023/11/11 11:14:14;;;;;;;8.48;5.60;;;;;;;7.67;100.00;99974.00;4893739;29;20097;-73
2023/11/11 11:16:41;;;;;;;7.72;4.70;;;;;;;7.69;100.00;99979.84;4905868;29;20039;-73
2023/11/11 11:19:13;;;;;;;8.57;4.53;;;;;;;7.70;100.00;99968.09;4898572;29;20697;-74
2023/11/11 11:21:39;;;;;;;8.88;5.30;;;;;;;7.71;100.00;99975.03;4890967;29;20084;-73
2023/11/11 11:24:09;;;;;;;8.18;4.53;;;;;;;7.71;100.00;99974.25;4903297;29;20071;-75
2023/11/11 11:26:35;;;;;;;13.20;5.10;;;;;;;7.73;100.00;99977.44;4902199;29;20040;-75
2023/11/11 11:29:12;;;;;;;;;;;;;;;7.74;100.00;99979.84;4886406;29;20121;-76
2023/11/11 11:32:06;;;;;;;8.43;4.68;;;;;;;7.73;100.00;99983.56;4882754;29;19915;-75
2023/11/11 11:34:33;;;;;;;8.25;4.80;;;;;;;7.71;100.00;99995.56;4904579;29;20040;-74